^^
Meteo Knjazevac Station Historical Data
Daily Summary for July 25, 2021 Units:  English    Metric   Both
Daily Weekly Monthly Yearly Custom
  High: Low: Average:
Temperature: 100.2 °F 63.9 °F 83 °F
Dew Point: 77.1 °F 59.1 °F 67.9 °F
Humidity: 85% 34% 63%
Wind Speed: 7mph 0mph 2mph
Wind Gust: 12mph - -
Wind- - SW
Pressure: 30.07 in 29.96 in -
Precipitation: 0.00 in    
Historical Graphs
 
 
Tabular Data for July 25, 2021
Time Temperature Dew Point Pressure Wind Wind Speed Wind Gust Humidity Rainfall Rate (Hourly) solar Conditions
00:00 79.7 °F 66.9 °F 30.05 in WSW 2 mph 3 mph 65% 0.00 in 0 W/m2
00:10 78.8 °F 66.9 °F 30.05 in West 2 mph 5 mph 67% 0.00 in 0 W/m2
00:20 78.3 °F 66.8 °F 30.05 in West 1 mph 4 mph 68% 0.00 in 0 W/m2
00:30 77.5 °F 66.1 °F 30.06 in NNW 1 mph 4 mph 68% 0.00 in 0 W/m2
00:40 76.8 °F 66.3 °F 30.06 in West 2 mph 3 mph 70% 0.00 in 0 W/m2
00:50 75.9 °F 65.4 °F 30.06 in WNW 2 mph 4 mph 70% 0.00 in 0 W/m2
01:00 75.2 °F 65.5 °F 30.06 in WNW 1 mph 3 mph 72% 0.00 in 0 W/m2
01:10 74.4 °F 65.2 °F 30.06 in NW 2 mph 3 mph 73% 0.00 in 0 W/m2
01:20 73.6 °F 64.8 °F 30.06 in Calm   3 mph 74% 0.00 in 0 W/m2
01:30 73 °F 64.6 °F 30.06 in NNW 1 mph 2 mph 75% 0.00 in 0 W/m2
01:40 72.3 °F 63.9 °F 30.06 in NNW 1 mph 2 mph 75% 0.00 in 0 W/m2
01:50 71.9 °F 63.6 °F 30.06 in NNW 1 mph 4 mph 75% 0.00 in 0 W/m2
02:00 71 °F 62.7 °F 30.06 in WSW 1 mph 3 mph 75% 0.00 in 0 W/m2
02:10 70 °F 61.7 °F 30.06 in West 5 mph 6 mph 75% 0.00 in 0 W/m2
02:20 69.4 °F 61.2 °F 30.06 in WNW 3 mph 6 mph 75% 0.00 in 0 W/m2
02:30 69 °F 61.9 °F 30.06 in WNW 1 mph 3 mph 78% 0.00 in 0 W/m2
02:40 68.5 °F 61.4 °F 30.06 in WSW 2 mph 3 mph 78% 0.00 in 0 W/m2
02:50 68 °F 61.2 °F 30.06 in WNW 1 mph 2 mph 79% 0.00 in 0 W/m2
03:00 67.5 °F 61.1 °F 30.06 in Calm   3 mph 80% 0.00 in 0 W/m2
03:10 67.3 °F 60.9 °F 30.06 in WNW 1 mph 3 mph 80% 0.00 in 0 W/m2
03:20 66.9 °F 60.5 °F 30.06 in WNW 1 mph 3 mph 80% 0.00 in 0 W/m2
03:30 66.6 °F 60.5 °F 30.06 in WNW 1 mph 2 mph 81% 0.00 in 0 W/m2
03:40 66.2 °F 60.2 °F 30.06 in Calm   3 mph 81% 0.00 in 0 W/m2
03:50 65.8 °F 59.8 °F 30.06 in West 1 mph 5 mph 81% 0.00 in 0 W/m2
04:00 65.4 °F 59.5 °F 30.06 in WSW 1 mph 4 mph 81% 0.00 in 0 W/m2
04:10 64.9 °F 59.7 °F 30.06 in WNW 1 mph 4 mph 83% 0.00 in 0 W/m2
04:20 64.8 °F 59.5 °F 30.06 in WNW 2 mph 4 mph 83% 0.00 in 0 W/m2
04:30 64.8 °F 59.5 °F 30.06 in NW 1 mph 5 mph 83% 0.00 in 0 W/m2
04:40 64.8 °F 59.5 °F 30.06 in NW 1 mph 2 mph 83% 0.00 in 0 W/m2
04:50 64.6 °F 59.6 °F 30.06 in WNW 2 mph 5 mph 84% 0.00 in 3 W/m2
05:00 64.6 °F 59.3 °F 30.06 in West 1 mph 5 mph 83% 0.00 in 7 W/m2
05:10 64.2 °F 59.3 °F 30.06 in Calm   3 mph 84% 0.00 in 14 W/m2
05:20 64 °F 59.1 °F 30.06 in Calm   2 mph 84% 0.00 in 23 W/m2
05:30 63.9 °F 59.3 °F 30.06 in NW 2 mph 4 mph 85% 0.00 in 34 W/m2
05:40 64 °F 59.4 °F 30.06 in WNW 1 mph 3 mph 85% 0.00 in 45 W/m2
05:50 64.3 °F 59.7 °F 30.06 in WNW 2 mph 4 mph 85% 0.00 in 60 W/m2
06:00 64.4 °F 59.8 °F 30.06 in West 2 mph 4 mph 85% 0.00 in 73 W/m2
06:10 64.6 °F 60 °F 30.07 in NW 2 mph 4 mph 85% 0.00 in 107 W/m2
06:20 64.9 °F 60.3 °F 30.07 in NW 2 mph 3 mph 85% 0.00 in 128 W/m2
06:30 65.1 °F 60.5 °F 30.06 in Calm   3 mph 85% 0.00 in 152 W/m2
06:40 65.5 °F 60.6 °F 30.06 in NNW 1 mph 3 mph 84% 0.00 in 177 W/m2
06:50 65.9 °F 61.2 °F 30.06 in West 2 mph 5 mph 85% 0.00 in 207 W/m2
07:00 66.6 °F 61.6 °F 30.06 in West 2 mph 5 mph 84% 0.00 in 244 W/m2
07:10 67.3 °F 62.6 °F 30.06 in WSW 2 mph 3 mph 85% 0.00 in 278 W/m2
07:20 68.1 °F 63.4 °F 30.06 in NNW 2 mph 4 mph 85% 0.00 in 312 W/m2
07:30 69.1 °F 64 °F 30.06 in WSW 1 mph 2 mph 84% 0.00 in 343 W/m2
07:40 69.8 °F 64.8 °F 30.06 in West 2 mph 4 mph 84% 0.00 in 374 W/m2
07:50 70.9 °F 65.5 °F 30.06 in Calm   3 mph 83% 0.00 in 402 W/m2
08:00 72 °F 65.9 °F 30.06 in West 2 mph 4 mph 81% 0.00 in 437 W/m2
08:10 72.9 °F 66 °F 30.07 in WNW 1 mph 4 mph 79% 0.00 in 468 W/m2
08:20 73.8 °F 67.2 °F 30.06 in WNW 1 mph 5 mph 80% 0.00 in 505 W/m2
08:30 75 °F 67.7 °F 30.06 in Calm   3 mph 78% 0.00 in 536 W/m2
08:40 76.3 °F 68.5 °F 30.06 in SE 2 mph 4 mph 77% 0.00 in 570 W/m2
08:50 78 °F 69 °F 30.06 in East 2 mph 7 mph 74% 0.00 in 604 W/m2
09:00 80.3 °F 70 °F 30.06 in SE 3 mph 8 mph 71% 0.00 in 635 W/m2
09:10 82.3 °F 70.7 °F 30.06 in ESE 3 mph 8 mph 68% 0.00 in 670 W/m2
09:20 83.9 °F 71.8 °F 30.06 in ESE 2 mph 6 mph 67% 0.00 in 697 W/m2
09:30 85.3 °F 72.2 °F 30.05 in SE 2 mph 6 mph 65% 0.00 in 727 W/m2
09:40 86.6 °F 73 °F 30.06 in SE 3 mph 5 mph 64% 0.00 in 748 W/m2
09:50 87.9 °F 74.2 °F 30.05 in SE 3 mph 7 mph 64% 0.00 in 778 W/m2
10:00 88.9 °F 74.2 °F 30.05 in ESE 3 mph 6 mph 62% 0.00 in 799 W/m2
10:10 89.7 °F 74 °F 30.05 in ESE 1 mph 5 mph 60% 0.00 in 822 W/m2
10:20 90.9 °F 75.1 °F 30.04 in SE 1 mph 7 mph 60% 0.00 in 843 W/m2
10:30 91.9 °F 74.5 °F 30.05 in ESE 2 mph 5 mph 57% 0.00 in 858 W/m2
10:40 92.3 °F 72.7 °F 30.04 in SSW 1 mph 7 mph 53% 0.00 in 803 W/m2
10:50 93.2 °F 74.1 °F 30.04 in SSE 3 mph 8 mph 54% 0.00 in 869 W/m2
11:00 93.8 °F 75.2 °F 30.04 in ESE 2 mph 8 mph 55% 0.00 in 905 W/m2
11:10 94.5 °F 72.9 °F 30.04 in SW 3 mph 5 mph 50% 0.00 in 927 W/m2
11:20 94.6 °F 71.9 °F 30.04 in SSW 2 mph 5 mph 48% 0.00 in 344 W/m2
11:30 95 °F 72.2 °F 30.04 in SSE 1 mph 5 mph 48% 0.00 in 950 W/m2
11:40 95.7 °F 72.9 °F 30.03 in NNE 1 mph 4 mph 48% 0.00 in 959 W/m2
11:50 96.4 °F 73.5 °F 30.03 in NNE 1 mph 6 mph 48% 0.00 in 943 W/m2
12:00 96.8 °F 72 °F 30.03 in SE 2 mph 5 mph 45% 0.00 in 660 W/m2
12:10 96.8 °F 72 °F 30.03 in SE 3 mph 6 mph 45% 0.00 in 444 W/m2
12:20 97 °F 71.5 °F 30.03 in SSW 2 mph 7 mph 44% 0.00 in 539 W/m2
12:30 97.2 °F 72.3 °F 30.02 in WSW 1 mph 5 mph 45% 0.00 in 936 W/m2
12:40 97.3 °F 71.8 °F 30.02 in SSE 5 mph 8 mph 44% 0.00 in 589 W/m2
12:50 97.3 °F 71.8 °F 30.02 in South 1 mph 8 mph 44% 0.00 in 515 W/m2
13:00 97.5 °F 71.3 °F 30.02 in SW 1 mph 6 mph 43% 0.00 in 972 W/m2
13:10 97.9 °F 72.3 °F 30.02 in SE 3 mph 6 mph 44% 0.00 in 967 W/m2
13:20 98.1 °F 73.1 °F 30.01 in West 1 mph 6 mph 45% 0.00 in 960 W/m2
13:30 98.5 °F 72.8 °F 30.01 in West 1 mph 4 mph 44% 0.00 in 952 W/m2
13:40 99 °F 72.6 °F 30.01 in SSW 2 mph 6 mph 43% 0.00 in 943 W/m2
13:50 99.3 °F 72.9 °F 30.01 in SSW 2 mph 6 mph 43% 0.00 in 932 W/m2
14:00 99.5 °F 73 °F 30.01 in West 2 mph 4 mph 43% 0.00 in 919 W/m2
14:10 99.3 °F 72.1 °F 30.00 in West 2 mph 6 mph 42% 0.00 in 676 W/m2
14:20 99.1 °F 72.7 °F 30.00 in WSW 2 mph 6 mph 43% 0.00 in 891 W/m2
14:30 99.3 °F 70.7 °F 30.00 in West 6 mph 10 mph 40% 0.00 in 874 W/m2
14:40 99.2 °F 69.9 °F 30.00 in WNW 5 mph 11 mph 39% 0.00 in 857 W/m2
14:50 99.5 °F 70.9 °F 30.00 in WNW 2 mph 9 mph 40% 0.00 in 838 W/m2
15:00 99.7 °F 70.3 °F 29.99 in West 6 mph 9 mph 39% 0.00 in 818 W/m2
15:10 99.9 °F 69.7 °F 29.99 in West 5 mph 10 mph 38% 0.00 in 797 W/m2
15:20 100 °F 68.3 °F 29.99 in SW 6 mph 8 mph 36% 0.00 in 774 W/m2
15:30 100 °F 67.5 °F 29.99 in SW 6 mph 9 mph 35% 0.00 in 748 W/m2
15:40 99.9 °F 66.5 °F 29.99 in SW 7 mph 10 mph 34% 0.00 in 704 W/m2
15:50 99.7 °F 66.3 °F 29.99 in SW 7 mph 12 mph 34% 0.00 in 702 W/m2
16:00 99.5 °F 66.2 °F 29.98 in SW 7 mph 12 mph 34% 0.00 in 674 W/m2
16:10 99.7 °F 67.2 °F 29.98 in WSW 3 mph 10 mph 35% 0.00 in 639 W/m2
16:20 99.8 °F 67.2 °F 29.98 in WSW 5 mph 7 mph 35% 0.00 in 613 W/m2
16:30 99.9 °F 68.9 °F 29.97 in WSW 2 mph 7 mph 37% 0.00 in 570 W/m2
16:40 100 °F 68.3 °F 29.97 in Calm   5 mph 36% 0.00 in 561 W/m2
16:50 100.2 °F 70 °F 29.97 in WSW 2 mph 7 mph 38% 0.00 in 524 W/m2
17:00 99.9 °F 69.7 °F 29.97 in SW 2 mph 6 mph 38% 0.00 in 218 W/m2
17:10 99.5 °F 68.6 °F 29.97 in SW 5 mph 7 mph 37% 0.00 in 475 W/m2
17:20 99.4 °F 70.8 °F 29.96 in SSW 3 mph 7 mph 40% 0.00 in 241 W/m2
17:30 98.3 °F 69.9 °F 29.97 in SSW 3 mph 6 mph 40% 0.00 in 181 W/m2
17:40 97.5 °F 68.4 °F 29.96 in SW 2 mph 5 mph 39% 0.00 in 142 W/m2
17:50 96.7 °F 73.2 °F 29.96 in SSW 1 mph 4 mph 47% 0.00 in 133 W/m2
18:00 95.5 °F 75.6 °F 29.96 in SSE 1 mph 4 mph 53% 0.00 in 101 W/m2
18:10 94.1 °F 77.1 °F 29.96 in SW 1 mph 5 mph 58% 0.00 in 98 W/m2
18:20 92.8 °F 76.4 °F 29.97 in WSW 1 mph 4 mph 59% 0.00 in 101 W/m2
18:30 91.8 °F 75.9 °F 29.97 in WSW 2 mph 4 mph 60% 0.00 in 127 W/m2
18:40 91 °F 76.2 °F 29.97 in SSW 1 mph 4 mph 62% 0.00 in 104 W/m2
18:50 90.6 °F 75.3 °F 29.97 in SW 1 mph 3 mph 61% 0.00 in 89 W/m2
19:00 90 °F 75.2 °F 29.98 in SSW 1 mph 4 mph 62% 0.00 in 51 W/m2
19:10 88.9 °F 74.2 °F 29.98 in SSE 2 mph 4 mph 62% 0.00 in 36 W/m2
19:20 88.2 °F 74 °F 29.98 in SE 1 mph 3 mph 63% 0.00 in 16 W/m2
19:30 87.7 °F 74 °F 29.98 in NE 1 mph 4 mph 64% 0.00 in 9 W/m2
19:40 87.1 °F 73.9 °F 29.98 in NNE 2 mph 6 mph 65% 0.00 in 7 W/m2
19:50 86.7 °F 74 °F 29.99 in SSW 2 mph 3 mph 66% 0.00 in 6 W/m2
20:00 86.1 °F 73.9 °F 29.99 in NW 1 mph 3 mph 67% 0.00 in 4 W/m2
20:10 85.5 °F 73.7 °F 30.00 in NNW 3 mph 10 mph 68% 0.00 in 3 W/m2
20:20 85.5 °F 72.3 °F 30.00 in West 3 mph 8 mph 65% 0.00 in 0 W/m2
20:30 85.3 °F 69.8 °F 30.02 in NNW 2 mph 9 mph 60% 0.00 in 0 W/m2
20:40 85.1 °F 70.6 °F 30.02 in North 1 mph 8 mph 62% 0.00 in 0 W/m2
20:50 84.7 °F 70.3 °F 30.02 in North 3 mph 8 mph 62% 0.00 in 0 W/m2
21:00 84.2 °F 68.8 °F 30.01 in North 2 mph 9 mph 60% 0.00 in 0 W/m2
21:10 83.6 °F 67.7 °F 30.01 in NNE 2 mph 7 mph 59% 0.00 in 0 W/m2
21:20 83.1 °F 67.3 °F 30.01 in NNE 3 mph 5 mph 59% 0.00 in 0 W/m2
21:30 82.6 °F 66.8 °F 30.01 in Calm   5 mph 59% 0.00 in 0 W/m2
21:40 82 °F 67.7 °F 30.01 in East 1 mph 3 mph 62% 0.00 in 0 W/m2
21:50 81.3 °F 67.5 °F 30.00 in Calm   2 mph 63% 0.00 in 0 W/m2
22:00 80.7 °F 67.8 °F 30.01 in WNW 2 mph 4 mph 65% 0.00 in 0 W/m2
22:10 79.8 °F 68.3 °F 30.01 in SSW 2 mph 5 mph 68% 0.00 in 0 W/m2
22:20 79.2 °F 68.1 °F 30.00 in WNW 1 mph 3 mph 69% 0.00 in 0 W/m2
22:30 78.7 °F 67.7 °F 30.01 in WSW 1 mph 4 mph 69% 0.00 in 0 W/m2
22:40 77.6 °F 66.6 °F 30.00 in WSW 2 mph 3 mph 69% 0.00 in 0 W/m2
22:50 76.8 °F 66.3 °F 30.00 in WSW 2 mph 5 mph 70% 0.00 in 0 W/m2
23:00 75.8 °F 66.5 °F 30.01 in West 5 mph 8 mph 73% 0.00 in 0 W/m2
23:10 75.2 °F 66.3 °F 30.01 in West 2 mph 7 mph 74% 0.00 in 0 W/m2
23:20 75 °F 66.6 °F 30.01 in West 2 mph 5 mph 75% 0.00 in 0 W/m2
23:30 74.8 °F 66.4 °F 30.02 in Calm   2 mph 75% 0.00 in 0 W/m2
23:40 74.7 °F 66.2 °F 30.02 in NW 1 mph 2 mph 75% 0.00 in 0 W/m2
Knjazevac, Serbia
Compliments of Weather Underground - 2 mb